< < Back
Terminal Aerodrome Forecast


Current Version              Previous Versions:   1  2  3  4  5  6  7  8  9  

Terminal Aerodrome Forecast

073
FTUS44 KHUN 211720
TAFHSV
TAF
KHSV 211720Z 2118/2218 26010G15KT P6SM SCT050
     FM212100 29009G14KT P6SM VCSH SCT040 BKN120
     FM220200 34007KT P6SM SCT070 SCT250
     FM221400 01012KT P6SM SCT250=



Latest METAR

400
SAUS80 KWBC 221600
MTRHSV
METAR KHSV 221553Z 05010G18KT 10SM CLR 23/11 A3016 RMK AO2 SLP204
T02330106


USA.gov is the U.S. government's official web portal to all federal, state and local government web resources and services.